createdAt,value
2018-10-21T00:00:01.568Z,71.92
2018-10-21T00:00:27.728Z,72.01
2018-10-21T00:00:53.856Z,72.11
2018-10-21T00:01:19.985Z,72.2
2018-10-21T00:01:46.145Z,72.3
2018-10-21T00:02:12.333Z,72.2
2018-10-21T00:02:38.444Z,72.39
2018-10-21T00:03:04.650Z,72.01
2018-10-21T00:03:30.734Z,72.11
2018-10-21T00:03:56.857Z,72.3
2018-10-21T00:04:23.018Z,72.2
2018-10-21T00:04:49.156Z,72.2
2018-10-21T00:05:15.290Z,72.2
2018-10-21T00:05:41.411Z,72.2
2018-10-21T00:06:07.545Z,72.3
2018-10-21T00:06:33.718Z,72.01
2018-10-21T00:06:59.841Z,72.11
2018-10-21T00:07:25.969Z,72.3
2018-10-21T00:07:52.098Z,72.49
2018-10-21T00:08:18.232Z,72.49
2018-10-21T00:08:44.366Z,72.3
2018-10-21T00:09:10.595Z,72.49
2018-10-21T00:09:36.702Z,72.58
2018-10-21T00:10:02.873Z,72.78
2018-10-21T00:10:29.033Z,72.68
2018-10-21T00:10:55.184Z,72.68
2018-10-21T00:11:21.320Z,72.49
2018-10-21T00:11:47.448Z,73.07
2018-10-21T00:12:13.592Z,72.97
2018-10-21T00:12:39.738Z,73.12
2018-10-21T00:13:05.860Z,73.03
2018-10-21T00:13:32.014Z,72.93
2018-10-21T00:13:58.145Z,73.79
2018-10-21T00:14:24.278Z,73.98
2018-10-21T00:14:50.419Z,73.69
2018-10-21T00:15:16.665Z,73.79
2018-10-21T00:15:42.897Z,73.79
2018-10-21T00:16:08.844Z,73.79
2018-10-21T00:16:35.006Z,73.6
2018-10-21T00:17:01.135Z,73.5
2018-10-21T00:17:27.303Z,73.88
2018-10-21T00:17:53.448Z,74.08
2018-10-21T00:18:19.583Z,74.27
2018-10-21T00:18:45.723Z,74.08
2018-10-21T00:19:11.847Z,74.46
2018-10-21T00:19:38.004Z,74.46
2018-10-21T00:20:04.134Z,75.13
2018-10-21T00:20:30.277Z,74.84
2018-10-21T00:20:56.455Z,74.84
2018-10-21T00:21:22.554Z,74.84
2018-10-21T00:21:48.690Z,74.37
2018-10-21T00:22:14.823Z,74.65
2018-10-21T00:22:40.956Z,74.37
2018-10-21T00:23:07.094Z,74.55
2018-10-21T00:23:33.225Z,73.88
2018-10-21T00:23:59.361Z,74.08
2018-10-21T00:24:25.490Z,73.98
2018-10-21T00:24:51.616Z,73.98
2018-10-21T00:25:17.778Z,73.88
2018-10-21T00:25:43.910Z,74.27
2018-10-21T00:26:10.046Z,74.27
2018-10-21T00:26:36.171Z,74.08
2018-10-21T00:27:02.352Z,74.27
2018-10-21T00:27:28.485Z,74.08
2018-10-21T00:27:54.859Z,74.46
2018-10-21T00:28:20.999Z,74.37
2018-10-21T00:28:47.151Z,74.46
2018-10-21T00:29:13.288Z,74.27
2018-10-21T00:29:39.418Z,74.27
2018-10-21T00:30:05.555Z,74.37
2018-10-21T00:30:31.689Z,74.08
2018-10-21T00:30:57.819Z,74.46
2018-10-21T00:31:23.951Z,73.98
2018-10-21T00:31:50.076Z,74.65
2018-10-21T00:32:16.267Z,74.46
2018-10-21T00:32:42.403Z,75.09
2018-10-21T00:33:08.540Z,74.8
2018-10-21T00:33:34.666Z,74.84
2018-10-21T00:34:00.800Z,75.18
2018-10-21T00:34:26.927Z,74.99
2018-10-21T00:34:53.058Z,75.18
2018-10-21T00:35:19.208Z,75.09
2018-10-21T00:35:45.322Z,74.8
2018-10-21T00:36:11.458Z,74.99
2018-10-21T00:36:37.615Z,75.76
2018-10-21T00:37:03.731Z,75.47
2018-10-21T00:37:29.864Z,75.57
2018-10-21T00:37:56.010Z,75.85
2018-10-21T00:38:22.157Z,75.85
2018-10-21T00:38:48.313Z,75.85
2018-10-21T00:39:14.580Z,75.28
2018-10-21T00:39:40.571Z,75.85
2018-10-21T00:40:06.724Z,75.85
2018-10-21T00:40:32.856Z,76.04
2018-10-21T00:40:59.025Z,76.04
2018-10-21T00:41:25.152Z,75.95
2018-10-21T00:41:51.288Z,75.57
2018-10-21T00:42:17.431Z,75.66
2018-10-21T00:42:43.587Z,75.47
2018-10-21T00:43:09.719Z,75.47
2018-10-21T00:43:35.875Z,75.47
2018-10-21T00:44:02.005Z,75.47
2018-10-21T00:44:28.140Z,75.76
2018-10-21T00:44:54.320Z,75.57
2018-10-21T00:45:20.420Z,75.18
2018-10-21T00:45:46.579Z,75.57
2018-10-21T00:46:12.708Z,76.04
2018-10-21T00:46:38.844Z,75.85
2018-10-21T00:47:04.984Z,75.37
2018-10-21T00:47:31.133Z,76.23
2018-10-21T00:47:57.265Z,75.85
2018-10-21T00:48:23.395Z,76.33
2018-10-21T00:48:49.520Z,76.14
2018-10-21T00:49:15.648Z,76.14
2018-10-21T00:49:41.805Z,75.85
2018-10-21T00:50:07.940Z,75.85
2018-10-21T00:50:34.068Z,76.33
2018-10-21T00:51:00.225Z,76.23
2018-10-21T00:51:26.373Z,75.76
2018-10-21T00:51:52.505Z,75.76
2018-10-21T00:52:18.662Z,75.66
2018-10-21T00:52:44.800Z,75.47
2018-10-21T00:53:10.935Z,75.57
2018-10-21T00:53:37.060Z,74.99
2018-10-21T00:54:03.198Z,74.71
2018-10-21T00:54:29.354Z,74.61
2018-10-21T00:54:55.513Z,74.9
2018-10-21T00:55:21.661Z,74.9
2018-10-21T00:55:47.798Z,74.99
2018-10-21T00:56:13.949Z,75.09
2018-10-21T00:56:40.088Z,74.8
2018-10-21T00:57:06.314Z,74.9
2018-10-21T00:57:32.395Z,74.9
2018-10-21T00:57:58.528Z,74.8
2018-10-21T00:58:24.655Z,74.9
2018-10-21T00:58:50.780Z,74.8
2018-10-21T00:59:16.917Z,74.8
2018-10-21T00:59:43.075Z,74.9
2018-10-21T01:00:09.203Z,75.18
2018-10-21T01:00:35.340Z,75.95
2018-10-21T01:01:01.464Z,75.66
2018-10-21T01:01:27.597Z,75.66
2018-10-21T01:01:53.732Z,75.47
2018-10-21T01:02:19.893Z,75.57
2018-10-21T01:02:46.022Z,75.37
2018-10-21T01:03:12.220Z,76.04
2018-10-21T01:03:38.332Z,75.91
2018-10-21T01:04:04.569Z,76.39
2018-10-21T01:04:30.627Z,76.01
2018-10-21T01:04:56.759Z,76.57
2018-10-21T01:05:22.920Z,76.57
2018-10-21T01:05:49.053Z,76.67
2018-10-21T01:06:15.179Z,77.25
2018-10-21T01:06:41.342Z,77.44
2018-10-21T01:07:07.464Z,77.44
2018-10-21T01:07:33.594Z,77.53
2018-10-21T01:07:59.726Z,77.72
2018-10-21T01:08:25.858Z,77.53
2018-10-21T01:08:51.997Z,77.62
2018-10-21T01:09:18.281Z,77.53
2018-10-21T01:09:44.316Z,77.53
2018-10-21T01:10:10.449Z,77.53
2018-10-21T01:10:36.583Z,77.72
2018-10-21T01:11:02.712Z,77.53
2018-10-21T01:11:28.861Z,77.44
2018-10-21T01:11:55.019Z,77.44
2018-10-21T01:12:21.147Z,78.1
2018-10-21T01:12:47.290Z,78.01
2018-10-21T01:13:13.418Z,78.39
2018-10-21T01:13:39.549Z,78.39
2018-10-21T01:14:05.709Z,78.1
2018-10-21T01:14:31.833Z,78.49
2018-10-21T01:14:58.003Z,78.3
2018-10-21T01:15:24.134Z,78.58
2018-10-21T01:15:50.264Z,78.3
2018-10-21T01:16:16.392Z,78.3
2018-10-21T01:16:42.544Z,78.3
2018-10-21T01:17:08.695Z,78.3
2018-10-21T01:17:34.820Z,78.39
2018-10-21T01:18:00.953Z,78.49
2018-10-21T01:18:27.097Z,79.11
2018-10-21T01:18:53.224Z,79.25
2018-10-21T01:19:19.387Z,78.83
2018-10-21T01:19:45.511Z,79.02
2018-10-21T01:20:11.647Z,78.73
2018-10-21T01:20:37.780Z,78.83
2018-10-21T01:21:03.955Z,78.96
2018-10-21T01:21:30.040Z,78.64
2018-10-21T01:21:56.197Z,78.25
2018-10-21T01:22:22.329Z,79.06
2018-10-21T01:22:48.462Z,79.02
2018-10-21T01:23:14.602Z,78.83
2018-10-21T01:23:40.728Z,78.64
2018-10-21T01:24:06.860Z,78.54
2018-10-21T01:24:33.043Z,78.92
2018-10-21T01:24:59.204Z,78.83
2018-10-21T01:25:25.330Z,78.83
2018-10-21T01:25:51.491Z,78.83
2018-10-21T01:26:17.643Z,78.54
2018-10-21T01:26:43.777Z,78.44
2018-10-21T01:27:09.995Z,78.64
2018-10-21T01:27:36.070Z,78.83
2018-10-21T01:28:02.219Z,78.67
2018-10-21T01:28:28.351Z,79.02
2018-10-21T01:28:54.486Z,78.58
2018-10-21T01:29:20.617Z,78.54
2018-10-21T01:29:46.773Z,78.54
2018-10-21T01:30:12.910Z,78.64
2018-10-21T01:30:39.085Z,78.54
2018-10-21T01:31:05.221Z,78.64
2018-10-21T01:31:31.354Z,79.02
2018-10-21T01:31:57.483Z,78.49
2018-10-21T01:32:23.617Z,78.77
2018-10-21T01:32:49.748Z,78.67
2018-10-21T01:33:15.953Z,78.67
2018-10-21T01:33:42.017Z,78.58
2018-10-21T01:34:08.145Z,78.3
2018-10-21T01:34:34.295Z,78.2
2018-10-21T01:35:00.430Z,78.58
2018-10-21T01:35:26.550Z,78.2
2018-10-21T01:35:52.693Z,78.39
2018-10-21T01:36:19.059Z,78.39
2018-10-21T01:36:45.045Z,78.3
2018-10-21T01:37:11.266Z,77.91
2018-10-21T01:37:37.364Z,77.91
2018-10-21T01:38:03.493Z,78.16
2018-10-21T01:38:29.633Z,78.06
2018-10-21T01:38:55.821Z,78.64
2018-10-21T01:39:21.925Z,78.64
2018-10-21T01:39:48.054Z,78.64
2018-10-21T01:40:14.187Z,78.54
2018-10-21T01:40:40.320Z,78.67
2018-10-21T01:41:06.471Z,78.64
2018-10-21T01:41:32.606Z,78.64
2018-10-21T01:41:58.738Z,78.25
2018-10-21T01:42:24.869Z,78.44
2018-10-21T01:42:50.997Z,78.25
2018-10-21T01:43:17.122Z,78.25
2018-10-21T01:43:43.262Z,78.3
2018-10-21T01:44:09.413Z,78.49
2018-10-21T01:44:35.546Z,78.64
2018-10-21T01:45:01.686Z,78.44
2018-10-21T01:45:27.805Z,78.16
2018-10-21T01:45:53.941Z,78.49
2018-10-21T01:46:20.068Z,78.3
2018-10-21T01:46:46.231Z,78.2
2018-10-21T01:47:12.366Z,78.3
2018-10-21T01:47:38.507Z,78.49
2018-10-21T01:48:04.634Z,78.49
2018-10-21T01:48:30.765Z,78.2
2018-10-21T01:48:56.901Z,77.82
2018-10-21T01:49:23.034Z,78.01
2018-10-21T01:49:49.163Z,78.1
2018-10-21T01:50:15.302Z,77.91
2018-10-21T01:50:41.432Z,77.44
2018-10-21T01:51:07.594Z,77.62
2018-10-21T01:51:33.733Z,77.44
2018-10-21T01:51:59.864Z,77.62
2018-10-21T01:52:26.045Z,77.62
2018-10-21T01:52:52.136Z,78.01
2018-10-21T01:53:18.273Z,78.1
2018-10-21T01:53:44.427Z,77.91
2018-10-21T01:54:10.564Z,78.1
2018-10-21T01:54:36.697Z,78.1
2018-10-21T01:55:02.827Z,77.82
2018-10-21T01:55:28.979Z,77.44
2018-10-21T01:55:55.150Z,77.44
2018-10-21T01:56:21.283Z,77.53
2018-10-21T01:56:47.409Z,77.53
2018-10-21T01:57:13.655Z,77.34
2018-10-21T01:57:39.698Z,77.34
2018-10-21T01:58:05.865Z,77.34
2018-10-21T01:58:31.997Z,77.15
2018-10-21T01:58:58.125Z,77.06
2018-10-21T01:59:24.259Z,77.25
2018-10-21T01:59:50.395Z,77.06
2018-10-21T02:00:16.525Z,77.15
2018-10-21T02:00:42.655Z,77.15
2018-10-21T02:01:08.786Z,77.25
2018-10-21T02:01:34.916Z,77.53
2018-10-21T02:02:01.056Z,77.72
2018-10-21T02:02:27.183Z,77.4
2018-10-21T02:02:53.427Z,77.69
2018-10-21T02:03:19.720Z,77.72
2018-10-21T02:03:45.653Z,77.62
2018-10-21T02:04:11.782Z,77.49
2018-10-21T02:04:37.922Z,77.78
2018-10-21T02:05:04.049Z,77.4
2018-10-21T02:05:30.181Z,78.25
2018-10-21T02:05:56.314Z,78.06
2018-10-21T02:06:22.466Z,77.87
2018-10-21T02:06:48.566Z,77.87
2018-10-21T02:07:14.696Z,77.69
2018-10-21T02:07:40.860Z,77.97
2018-10-21T02:08:07.034Z,77.87
2018-10-21T02:08:33.166Z,77.87
2018-10-21T02:08:59.392Z,77.78
2018-10-21T02:09:25.500Z,77.78
2018-10-21T02:09:51.646Z,77.78
2018-10-21T02:10:17.804Z,77.87
2018-10-21T02:10:43.960Z,77.87
2018-10-21T02:11:10.121Z,77.97
2018-10-21T02:11:36.252Z,77.59
2018-10-21T02:12:02.387Z,77.78
2018-10-21T02:12:28.544Z,77.87
2018-10-21T02:12:54.678Z,78.35
2018-10-21T02:13:20.808Z,78.25
2018-10-21T02:13:46.947Z,78.44
2018-10-21T02:14:13.126Z,78.44
2018-10-21T02:14:39.219Z,78.25
2018-10-21T02:15:05.418Z,77.78
2018-10-21T02:15:31.547Z,77.97
2018-10-21T02:15:57.700Z,78.35
2018-10-21T02:16:23.837Z,78.54
2018-10-21T02:16:49.967Z,78.35
2018-10-21T02:17:16.097Z,78.44
2018-10-21T02:17:42.229Z,78.78
2018-10-21T02:18:08.363Z,78.25
2018-10-21T02:18:34.601Z,79.4
2018-10-21T02:19:00.639Z,78.78
2018-10-21T02:19:26.771Z,78.92
2018-10-21T02:19:52.906Z,78.78
2018-10-21T02:20:19.041Z,78.5
2018-10-21T02:20:45.163Z,79.17
2018-10-21T02:21:11.416Z,79.27
2018-10-21T02:21:37.475Z,79.17
2018-10-21T02:22:03.629Z,78.98
2018-10-21T02:22:29.788Z,79.36
2018-10-21T02:22:55.932Z,79.07
2018-10-21T02:23:22.071Z,79.17
2018-10-21T02:23:48.194Z,79.07
2018-10-21T02:24:14.333Z,79.46
2018-10-21T02:24:40.477Z,79.83
2018-10-21T02:25:06.615Z,79.74
2018-10-21T02:25:32.745Z,79.36
2018-10-21T02:25:58.876Z,79.74
2018-10-21T02:26:25.122Z,79.46
2018-10-21T02:26:51.247Z,79.64
2018-10-21T02:27:17.459Z,79.46
2018-10-21T02:27:43.499Z,79.83
2018-10-21T02:28:09.697Z,79.64
2018-10-21T02:28:35.795Z,80.31
2018-10-21T02:29:01.941Z,79.93
2018-10-21T02:29:28.073Z,80.02
2018-10-21T02:29:54.231Z,79.36
2018-10-21T02:30:20.367Z,79.46
2018-10-21T02:30:46.584Z,79.46
2018-10-21T02:31:12.762Z,79.64
2018-10-21T02:31:38.928Z,79.64
2018-10-21T02:32:05.085Z,79.36
2018-10-21T02:32:31.246Z,78.88
2018-10-21T02:32:57.487Z,79.27
2018-10-21T02:33:23.719Z,79.27
2018-10-21T02:33:49.731Z,79.27
2018-10-21T02:34:15.883Z,79.17
2018-10-21T02:34:42.019Z,79.07
2018-10-21T02:35:08.193Z,79.36
2018-10-21T02:35:34.347Z,79.64
2018-10-21T02:36:00.476Z,79.36
2018-10-21T02:36:26.628Z,79.93
2018-10-21T02:36:52.766Z,80.12
2018-10-21T02:37:18.946Z,80.12
2018-10-21T02:37:45.079Z,79.93
2018-10-21T02:38:11.204Z,79.36
2018-10-21T02:38:37.339Z,79.74
2018-10-21T02:39:03.588Z,79.64
2018-10-21T02:39:29.696Z,79.64
2018-10-21T02:39:55.824Z,80.22
2018-10-21T02:40:21.999Z,80.02
2018-10-21T02:40:48.154Z,79.64
2018-10-21T02:41:14.284Z,79.93
2018-10-21T02:41:40.442Z,80.12
2018-10-21T02:42:06.569Z,80.02
2018-10-21T02:42:32.698Z,79.55
2018-10-21T02:42:58.900Z,80.31
2018-10-21T02:43:25.050Z,80.12
2018-10-21T02:43:51.181Z,80.31
2018-10-21T02:44:17.397Z,80.5
2018-10-21T02:44:43.507Z,80.69
2018-10-21T02:45:09.707Z,80.31
2018-10-21T02:45:35.820Z,80.22
2018-10-21T02:46:01.964Z,80.22
2018-10-21T02:46:28.106Z,80.41
2018-10-21T02:46:54.287Z,80.12
2018-10-21T02:47:20.418Z,80.41
2018-10-21T02:47:46.587Z,80.69
2018-10-21T02:48:12.714Z,80.98
2018-10-21T02:48:38.852Z,80.88
2018-10-21T02:49:05.003Z,81.17
2018-10-21T02:49:31.164Z,80.79
2018-10-21T02:49:57.292Z,81.32
2018-10-21T02:50:23.451Z,81.65
2018-10-21T02:50:49.638Z,81.93
2018-10-21T02:51:15.865Z,81.84
2018-10-21T02:51:41.925Z,81.65
2018-10-21T02:52:08.093Z,81.46
2018-10-21T02:52:34.259Z,81.84
2018-10-21T02:53:00.436Z,81.32
2018-10-21T02:53:26.616Z,81.07
2018-10-21T02:53:52.745Z,81.79
2018-10-21T02:54:18.883Z,81.55
2018-10-21T02:54:45.040Z,81.93
2018-10-21T02:55:11.172Z,81.93
2018-10-21T02:55:37.322Z,82.12
2018-10-21T02:56:03.484Z,82.31
2018-10-21T02:56:29.661Z,81.74
2018-10-21T02:56:55.886Z,81.7
2018-10-21T02:57:22.213Z,81.84
2018-10-21T02:57:48.136Z,81.74
2018-10-21T02:58:14.269Z,81.55
2018-10-21T02:58:40.425Z,81.84
2018-10-21T02:59:06.582Z,82.31
2018-10-21T02:59:32.757Z,82.12
2018-10-21T02:59:58.890Z,82.46
2018-10-21T03:00:25.020Z,82.31
2018-10-21T03:00:51.151Z,82.41
2018-10-21T03:01:17.299Z,81.89
2018-10-21T03:01:43.438Z,82.21
2018-10-21T03:02:09.566Z,81.84
2018-10-21T03:02:35.719Z,81.84
2018-10-21T03:03:01.868Z,81.26
2018-10-21T03:03:28.000Z,81.74
2018-10-21T03:03:54.136Z,81.65
2018-10-21T03:04:20.265Z,82.31
2018-10-21T03:04:46.399Z,81.84
2018-10-21T03:05:12.563Z,82.03
2018-10-21T03:05:38.699Z,82.03
2018-10-21T03:06:04.852Z,81.84
2018-10-21T03:06:31.010Z,81.93
2018-10-21T03:06:57.157Z,81.84
2018-10-21T03:07:23.290Z,81.46
2018-10-21T03:07:49.429Z,82.03
2018-10-21T03:08:15.571Z,82.41
2018-10-21T03:08:41.743Z,81.74
2018-10-21T03:09:07.948Z,81.84
2018-10-21T03:09:34.081Z,81.55
2018-10-21T03:10:00.217Z,81.36
2018-10-21T03:10:26.351Z,81.74
2018-10-21T03:10:52.495Z,81.46
2018-10-21T03:11:18.644Z,81.84
2018-10-21T03:11:44.821Z,82.27
2018-10-21T03:12:10.958Z,82.08
2018-10-21T03:12:37.129Z,81.89
2018-10-21T03:13:03.280Z,82.46
2018-10-21T03:13:29.420Z,82.18
2018-10-21T03:13:55.581Z,82.37
2018-10-21T03:14:21.760Z,82.69
2018-10-21T03:14:47.886Z,82.56
2018-10-21T03:15:14.076Z,82.65
2018-10-21T03:15:40.199Z,82.65
2018-10-21T03:16:06.327Z,82.65
2018-10-21T03:16:32.458Z,82.56
2018-10-21T03:16:58.617Z,82.21
2018-10-21T03:17:24.769Z,82.5
2018-10-21T03:17:50.924Z,82.65
2018-10-21T03:18:17.170Z,82.37
2018-10-21T03:18:43.220Z,82.37
2018-10-21T03:19:09.417Z,82.56
2018-10-21T03:19:35.582Z,82.75
2018-10-21T03:20:01.721Z,82.75
2018-10-21T03:20:27.850Z,82.84
2018-10-21T03:20:54.028Z,83.03
2018-10-21T03:21:20.357Z,82.84
2018-10-21T03:21:46.336Z,82.93
2018-10-21T03:22:12.512Z,83.03
2018-10-21T03:22:38.686Z,82.37
2018-10-21T03:23:04.803Z,82.27
2018-10-21T03:23:30.931Z,82.84
2018-10-21T03:23:57.070Z,82.65
2018-10-21T03:24:23.196Z,83.13
2018-10-21T03:24:49.346Z,83.03
2018-10-21T03:25:15.487Z,83.41
2018-10-21T03:25:41.615Z,83.03
2018-10-21T03:26:07.747Z,83.13
2018-10-21T03:26:33.890Z,82.84
2018-10-21T03:27:00.060Z,82.84
2018-10-21T03:27:26.176Z,82.93
2018-10-21T03:27:52.310Z,82.27
2018-10-21T03:28:18.466Z,82.27
2018-10-21T03:28:44.607Z,82.37
2018-10-21T03:29:10.759Z,82.37
2018-10-21T03:29:36.948Z,82.93
2018-10-21T03:30:03.093Z,82.46
2018-10-21T03:30:29.309Z,83.03
2018-10-21T03:30:55.472Z,82.56
2018-10-21T03:31:21.676Z,82.46
2018-10-21T03:31:47.834Z,82.46
2018-10-21T03:32:14.002Z,82.84
2018-10-21T03:32:40.138Z,82.75
2018-10-21T03:33:06.353Z,82.65
2018-10-21T03:33:32.495Z,82.65
2018-10-21T03:33:58.697Z,82.46
2018-10-21T03:34:24.795Z,82.27
2018-10-21T03:34:50.958Z,82.84
2018-10-21T03:35:17.136Z,82.27
2018-10-21T03:35:43.290Z,82.27
2018-10-21T03:36:09.426Z,82.18
2018-10-21T03:36:35.561Z,82.18
2018-10-21T03:37:01.691Z,82.27
2018-10-21T03:37:27.817Z,82.37
2018-10-21T03:37:53.955Z,82.46
2018-10-21T03:38:20.123Z,82.56
2018-10-21T03:38:46.303Z,82.56
2018-10-21T03:39:12.454Z,82.37
2018-10-21T03:39:38.588Z,81.98
2018-10-21T03:40:04.740Z,82.27
2018-10-21T03:40:30.887Z,82.08
2018-10-21T03:40:57.038Z,82.18
2018-10-21T03:41:23.197Z,82.21
2018-10-21T03:41:49.349Z,82.12
2018-10-21T03:42:15.506Z,82.31
2018-10-21T03:42:41.655Z,82.12
2018-10-21T03:43:07.814Z,81.93
2018-10-21T03:43:33.999Z,82.03
2018-10-21T03:44:00.127Z,81.74
2018-10-21T03:44:26.260Z,81.98
2018-10-21T03:44:52.418Z,81.6
2018-10-21T03:45:18.558Z,82.12
2018-10-21T03:45:44.730Z,81.74
2018-10-21T03:46:10.876Z,81.36
2018-10-21T03:46:37.020Z,81.07
2018-10-21T03:47:03.151Z,81.36
2018-10-21T03:47:29.286Z,81.84
2018-10-21T03:47:55.432Z,81.93
2018-10-21T03:48:21.571Z,81.55
2018-10-21T03:48:47.705Z,81.65
2018-10-21T03:49:13.837Z,81.65
2018-10-21T03:49:39.992Z,81.17
2018-10-21T03:50:06.149Z,81.07
2018-10-21T03:50:32.282Z,80.79
2018-10-21T03:50:58.416Z,80.79
2018-10-21T03:51:24.549Z,80.69
2018-10-21T03:51:50.672Z,81.17
2018-10-21T03:52:16.913Z,80.98
2018-10-21T03:52:42.955Z,81.26
2018-10-21T03:53:09.090Z,81.17
2018-10-21T03:53:35.276Z,81.23
2018-10-21T03:54:01.417Z,81.07
2018-10-21T03:54:27.566Z,81.26
2018-10-21T03:54:53.719Z,81.55
2018-10-21T03:55:19.876Z,81.98
2018-10-21T03:55:46.011Z,82.03
2018-10-21T03:56:12.164Z,81.65
2018-10-21T03:56:38.301Z,81.7
2018-10-21T03:57:04.426Z,81.93
2018-10-21T03:57:30.553Z,81.46
2018-10-21T03:57:56.693Z,81.65
2018-10-21T03:58:22.851Z,81.65
2018-10-21T03:58:49.006Z,81.84
2018-10-21T03:59:15.132Z,81.84
2018-10-21T03:59:41.268Z,81.65
2018-10-21T04:00:07.406Z,82.12
2018-10-21T04:00:33.535Z,81.51
2018-10-21T04:00:59.670Z,81.65
2018-10-21T04:01:25.818Z,81.36
2018-10-21T04:01:51.947Z,81.17
2018-10-21T04:02:18.085Z,81.23
2018-10-21T04:02:44.213Z,81.79
2018-10-21T04:03:10.360Z,81.6
2018-10-21T04:03:36.517Z,81.23
2018-10-21T04:04:02.676Z,81.6
2018-10-21T04:04:28.813Z,81.7
2018-10-21T04:04:54.948Z,81.7
2018-10-21T04:05:21.077Z,81.6
2018-10-21T04:05:47.208Z,81.6
2018-10-21T04:06:13.344Z,81.7
2018-10-21T04:06:39.479Z,81.51
2018-10-21T04:07:05.602Z,81.32
2018-10-21T04:07:31.741Z,81.89
2018-10-21T04:07:57.880Z,82.08
2018-10-21T04:08:24.011Z,82.27
2018-10-21T04:08:50.170Z,81.79
2018-10-21T04:09:16.321Z,82.27
2018-10-21T04:09:42.461Z,81.89
2018-10-21T04:10:08.630Z,81.89
2018-10-21T04:10:34.760Z,82.08
2018-10-21T04:11:00.890Z,82.18
2018-10-21T04:11:27.024Z,82.18
2018-10-21T04:11:53.179Z,82.27
2018-10-21T04:12:19.339Z,82.18
2018-10-21T04:12:45.468Z,81.89
2018-10-21T04:13:11.609Z,82.08
2018-10-21T04:13:37.760Z,82.08
2018-10-21T04:14:03.894Z,82.18
2018-10-21T04:14:30.025Z,81.89
2018-10-21T04:14:56.159Z,81.79
2018-10-21T04:15:22.287Z,81.79
2018-10-21T04:15:48.418Z,82.08
2018-10-21T04:16:14.684Z,81.79
2018-10-21T04:16:40.684Z,81.41
2018-10-21T04:17:06.813Z,81.6
2018-10-21T04:17:32.949Z,81.6
2018-10-21T04:17:59.077Z,81.6
2018-10-21T04:18:25.228Z,81.65
2018-10-21T04:18:51.365Z,81.41
2018-10-21T04:19:17.502Z,81.6
2018-10-21T04:19:43.627Z,81.36
2018-10-21T04:20:09.753Z,80.94
2018-10-21T04:20:35.882Z,81.26
2018-10-21T04:21:02.011Z,81.32
2018-10-21T04:21:28.142Z,81.17
2018-10-21T04:21:54.318Z,80.88
2018-10-21T04:22:20.402Z,80.88
2018-10-21T04:22:46.546Z,80.98
2018-10-21T04:23:12.679Z,80.88
2018-10-21T04:23:38.848Z,80.5
2018-10-21T04:24:04.976Z,80.79
2018-10-21T04:24:31.107Z,80.79
2018-10-21T04:24:57.242Z,80.5
2018-10-21T04:25:23.392Z,80.79
2018-10-21T04:25:49.524Z,80.69
2018-10-21T04:26:15.646Z,80.41
2018-10-21T04:26:41.777Z,80.41
2018-10-21T04:27:07.900Z,80.41
2018-10-21T04:27:34.032Z,80.41
2018-10-21T04:28:00.212Z,80.5
2018-10-21T04:28:26.300Z,80.79
2018-10-21T04:28:52.438Z,80.5
2018-10-21T04:29:18.570Z,80.69
2018-10-21T04:29:44.695Z,80.41
2018-10-21T04:30:10.824Z,80.6
2018-10-21T04:30:36.961Z,79.93
2018-10-21T04:31:03.090Z,80.12
2018-10-21T04:31:29.216Z,80.02
2018-10-21T04:31:55.353Z,79.74
2018-10-21T04:32:21.487Z,79.74
2018-10-21T04:32:47.624Z,80.02
2018-10-21T04:33:13.752Z,79.83
2018-10-21T04:33:39.910Z,80.02
2018-10-21T04:34:06.101Z,79.93
2018-10-21T04:34:32.215Z,79.64
2018-10-21T04:34:58.351Z,79.93
2018-10-21T04:35:24.491Z,80.02
2018-10-21T04:35:50.631Z,79.93
2018-10-21T04:36:16.803Z,79.27
2018-10-21T04:36:42.942Z,79.64
2018-10-21T04:37:09.066Z,79.46
2018-10-21T04:37:35.197Z,79.46
2018-10-21T04:38:01.329Z,79.36
2018-10-21T04:38:27.466Z,79.27
2018-10-21T04:38:53.622Z,79.36
2018-10-21T04:39:19.755Z,78.98
2018-10-21T04:39:45.883Z,78.88
2018-10-21T04:40:12.110Z,78.88
2018-10-21T04:40:38.166Z,79.27
2018-10-21T04:41:04.351Z,78.98
2018-10-21T04:41:30.479Z,79.27
2018-10-21T04:41:56.616Z,79.27
2018-10-21T04:42:22.748Z,79.17
2018-10-21T04:42:48.888Z,79.07
2018-10-21T04:43:15.064Z,78.98
2018-10-21T04:43:41.198Z,78.98
2018-10-21T04:44:07.330Z,78.98
2018-10-21T04:44:33.468Z,78.88
2018-10-21T04:44:59.595Z,78.88
2018-10-21T04:45:25.728Z,78.98
2018-10-21T04:45:51.862Z,79.27
2018-10-21T04:46:18.039Z,79.36
2018-10-21T04:46:44.294Z,79.17
2018-10-21T04:47:10.397Z,79.17
2018-10-21T04:47:36.427Z,78.98
2018-10-21T04:48:02.558Z,79.36
2018-10-21T04:48:28.703Z,79.46
2018-10-21T04:48:54.830Z,79.64
2018-10-21T04:49:20.959Z,79.74
2018-10-21T04:49:47.082Z,79.55
2018-10-21T04:50:13.224Z,79.46
2018-10-21T04:50:39.358Z,79.55
2018-10-21T04:51:05.490Z,79.46
2018-10-21T04:51:31.625Z,79.64
2018-10-21T04:51:57.807Z,79.55
2018-10-21T04:52:23.937Z,79.46
2018-10-21T04:52:50.072Z,79.64
2018-10-21T04:53:16.207Z,79.55
2018-10-21T04:53:42.361Z,79.46
2018-10-21T04:54:08.487Z,79.64
2018-10-21T04:54:34.624Z,79.55
2018-10-21T04:55:00.759Z,79.46
2018-10-21T04:55:26.910Z,79.64
2018-10-21T04:55:53.092Z,79.55
2018-10-21T04:56:19.244Z,79.83
2018-10-21T04:56:45.373Z,79.83
2018-10-21T04:57:11.513Z,80.02
2018-10-21T04:57:37.648Z,79.83
2018-10-21T04:58:03.807Z,80.22
2018-10-21T04:58:29.941Z,80.5
2018-10-21T04:58:56.103Z,80.5
2018-10-21T04:59:22.260Z,80.5
2018-10-21T04:59:48.388Z,80.31
2018-10-21T05:00:14.548Z,80.5
2018-10-21T05:00:40.677Z,80.41
2018-10-21T05:01:06.799Z,80.31
2018-10-21T05:01:32.926Z,80.22
2018-10-21T05:01:59.069Z,80.5
2018-10-21T05:02:25.192Z,80.6
2018-10-21T05:02:51.355Z,80.5
2018-10-21T05:03:17.482Z,80.5
2018-10-21T05:03:43.609Z,80.69
2018-10-21T05:04:09.777Z,80.22
2018-10-21T05:04:35.906Z,80.69
2018-10-21T05:05:02.063Z,80.31
2018-10-21T05:05:28.222Z,80.6
2018-10-21T05:05:54.355Z,80.22
2018-10-21T05:06:20.481Z,80.75
2018-10-21T05:06:46.639Z,80.79
2018-10-21T05:07:12.823Z,80.5
2018-10-21T05:07:38.995Z,80.94
2018-10-21T05:08:05.122Z,80.84
2018-10-21T05:08:31.282Z,81.03
2018-10-21T05:08:57.440Z,81.23
2018-10-21T05:09:23.568Z,81.51
2018-10-21T05:09:49.696Z,81.41
2018-10-21T05:10:15.863Z,81.89
2018-10-21T05:10:41.998Z,81.7
2018-10-21T05:11:08.154Z,81.6
2018-10-21T05:11:34.319Z,81.79
2018-10-21T05:12:00.412Z,81.51
2018-10-21T05:12:26.547Z,81.03
2018-10-21T05:12:52.702Z,81.23
2018-10-21T05:13:18.837Z,81.23
2018-10-21T05:13:44.962Z,81.23
2018-10-21T05:14:11.104Z,81.36
2018-10-21T05:14:37.230Z,81.32
2018-10-21T05:15:03.464Z,80.84
2018-10-21T05:15:29.595Z,81.03
2018-10-21T05:15:55.720Z,80.94
2018-10-21T05:16:21.924Z,81.13
2018-10-21T05:16:48.071Z,80.94
2018-10-21T05:17:14.204Z,80.75
2018-10-21T05:17:40.335Z,80.84
2018-10-21T05:18:06.467Z,80.94
2018-10-21T05:18:32.602Z,80.84
2018-10-21T05:18:58.730Z,80.84
2018-10-21T05:19:24.858Z,81.32
2018-10-21T05:19:50.992Z,81.13
2018-10-21T05:20:17.156Z,80.94
2018-10-21T05:20:43.305Z,80.84
2018-10-21T05:21:09.436Z,80.69
2018-10-21T05:21:35.570Z,81.26
2018-10-21T05:22:01.782Z,80.6
2018-10-21T05:22:27.883Z,80.5
2018-10-21T05:22:54.017Z,80.65
2018-10-21T05:23:20.146Z,80.02
2018-10-21T05:23:46.282Z,80.36
2018-10-21T05:24:12.409Z,80.94
2018-10-21T05:24:38.538Z,80.94
2018-10-21T05:25:04.673Z,81.13
2018-10-21T05:25:30.800Z,81.13
2018-10-21T05:25:56.936Z,80.94
2018-10-21T05:26:23.072Z,80.84
2018-10-21T05:26:49.201Z,80.75
2018-10-21T05:27:15.327Z,80.84
2018-10-21T05:27:41.483Z,80.98
2018-10-21T05:28:07.649Z,80.84
2018-10-21T05:28:33.793Z,80.55
2018-10-21T05:28:59.927Z,80.75
2018-10-21T05:29:26.065Z,81.23
2018-10-21T05:29:52.222Z,81.51
2018-10-21T05:30:18.347Z,81.79
2018-10-21T05:30:44.484Z,81.7
2018-10-21T05:31:10.633Z,81.7
2018-10-21T05:31:36.769Z,81.89
2018-10-21T05:32:02.895Z,81.6
2018-10-21T05:32:29.036Z,81.7
2018-10-21T05:32:55.170Z,81.89
2018-10-21T05:33:21.288Z,81.6
2018-10-21T05:33:47.422Z,81.41
2018-10-21T05:34:13.601Z,81.32
2018-10-21T05:34:39.713Z,81.98
2018-10-21T05:35:05.866Z,82.08
2018-10-21T05:35:32.043Z,81.7
2018-10-21T05:35:58.174Z,81.89
2018-10-21T05:36:24.307Z,81.89
2018-10-21T05:36:50.441Z,81.79
2018-10-21T05:37:16.570Z,81.7
2018-10-21T05:37:42.762Z,82.27